sensor_id;sensor_type;location;lat;lon;timestamp;temperature;humidity
40996;DHT22;26723;57.478;12.066;2023-03-24T00:01:45;7.40;99.90
40996;DHT22;26723;57.478;12.066;2023-03-24T00:04:53;7.30;99.90
40996;DHT22;26723;57.478;12.066;2023-03-24T00:08:04;7.30;99.90
40996;DHT22;26723;57.478;12.066;2023-03-24T00:11:13;7.30;99.90
40996;DHT22;26723;57.478;12.066;2023-03-24T00:14:24;7.30;99.90
40996;DHT22;26723;57.478;12.066;2023-03-24T00:17:38;7.20;99.90
40996;DHT22;26723;57.478;12.066;2023-03-24T00:20:47;7.20;99.90
40996;DHT22;26723;57.478;12.066;2023-03-24T00:23:55;7.20;99.90
40996;DHT22;26723;57.478;12.066;2023-03-24T00:27:06;7.10;99.90
40996;DHT22;26723;57.478;12.066;2023-03-24T00:30:15;6.90;99.90
40996;DHT22;26723;57.478;12.066;2023-03-24T00:33:26;7.00;99.90
40996;DHT22;26723;57.478;12.066;2023-03-24T00:36:35;6.90;99.90
40996;DHT22;26723;57.478;12.066;2023-03-24T00:39:44;6.70;99.90
40996;DHT22;26723;57.478;12.066;2023-03-24T00:42:52;6.60;99.90
40996;DHT22;26723;57.478;12.066;2023-03-24T00:46:03;6.60;99.90
40996;DHT22;26723;57.478;12.066;2023-03-24T00:49:15;6.60;99.90
40996;DHT22;26723;57.478;12.066;2023-03-24T00:52:23;6.60;99.90
40996;DHT22;26723;57.478;12.066;2023-03-24T00:55:32;6.60;99.90
40996;DHT22;26723;57.478;12.066;2023-03-24T00:58:43;6.60;99.90
40996;DHT22;26723;57.478;12.066;2023-03-24T01:01:52;6.60;99.90
40996;DHT22;26723;57.478;12.066;2023-03-24T01:05:04;6.50;99.90
40996;DHT22;26723;57.478;12.066;2023-03-24T01:08:13;6.50;99.90
40996;DHT22;26723;57.478;12.066;2023-03-24T01:11:26;6.50;99.90
40996;DHT22;26723;57.478;12.066;2023-03-24T01:14:35;6.50;99.90
40996;DHT22;26723;57.478;12.066;2023-03-24T01:17:44;6.40;99.90
40996;DHT22;26723;57.478;12.066;2023-03-24T01:20:55;6.40;99.90
40996;DHT22;26723;57.478;12.066;2023-03-24T01:24:05;6.30;99.90
40996;DHT22;26723;57.478;12.066;2023-03-24T01:27:14;6.30;99.90
40996;DHT22;26723;57.478;12.066;2023-03-24T01:30:24;6.30;99.90
40996;DHT22;26723;57.478;12.066;2023-03-24T01:33:33;6.30;99.90
40996;DHT22;26723;57.478;12.066;2023-03-24T01:36:43;6.20;99.90
40996;DHT22;26723;57.478;12.066;2023-03-24T01:39:52;6.20;99.90
40996;DHT22;26723;57.478;12.066;2023-03-24T01:43:00;6.20;99.90
40996;DHT22;26723;57.478;12.066;2023-03-24T01:46:15;6.20;99.90
40996;DHT22;26723;57.478;12.066;2023-03-24T01:49:28;6.20;99.90
40996;DHT22;26723;57.478;12.066;2023-03-24T01:52:40;6.10;99.90
40996;DHT22;26723;57.478;12.066;2023-03-24T01:55:50;6.10;99.90
40996;DHT22;26723;57.478;12.066;2023-03-24T01:59:05;6.10;99.90
40996;DHT22;26723;57.478;12.066;2023-03-24T02:02:25;6.10;99.90
40996;DHT22;26723;57.478;12.066;2023-03-24T02:05:45;6.10;99.90
40996;DHT22;26723;57.478;12.066;2023-03-24T02:08:58;6.10;99.90
40996;DHT22;26723;57.478;12.066;2023-03-24T02:12:07;6.10;99.90
40996;DHT22;26723;57.478;12.066;2023-03-24T02:15:18;6.10;99.90
40996;DHT22;26723;57.478;12.066;2023-03-24T02:18:34;6.10;99.90
40996;DHT22;26723;57.478;12.066;2023-03-24T02:26:31;6.00;99.90
40996;DHT22;26723;57.478;12.066;2023-03-24T02:34:05;6.20;99.90
40996;DHT22;26723;57.478;12.066;2023-03-24T02:37:33;6.30;99.90
40996;DHT22;26723;57.478;12.066;2023-03-24T02:40:54;6.30;99.90
40996;DHT22;26723;57.478;12.066;2023-03-24T02:44:12;6.20;99.90
40996;DHT22;26723;57.478;12.066;2023-03-24T02:47:31;6.20;99.90
40996;DHT22;26723;57.478;12.066;2023-03-24T02:50:49;6.20;99.90
40996;DHT22;26723;57.478;12.066;2023-03-24T02:54:04;6.20;99.90
40996;DHT22;26723;57.478;12.066;2023-03-24T02:57:20;6.20;99.90
40996;DHT22;26723;57.478;12.066;2023-03-24T03:00:47;6.20;99.90
40996;DHT22;26723;57.478;12.066;2023-03-24T03:04:24;6.30;99.90
40996;DHT22;26723;57.478;12.066;2023-03-24T03:07:36;6.30;99.90
40996;DHT22;26723;57.478;12.066;2023-03-24T03:10:47;6.30;99.90
40996;DHT22;26723;57.478;12.066;2023-03-24T03:14:01;6.40;99.90
40996;DHT22;26723;57.478;12.066;2023-03-24T03:17:15;6.40;99.90
40996;DHT22;26723;57.478;12.066;2023-03-24T03:20:28;6.40;99.90
40996;DHT22;26723;57.478;12.066;2023-03-24T03:23:45;6.30;99.90
40996;DHT22;26723;57.478;12.066;2023-03-24T03:26:59;6.30;99.90
40996;DHT22;26723;57.478;12.066;2023-03-24T03:30:14;6.30;99.90
40996;DHT22;26723;57.478;12.066;2023-03-24T03:33:28;6.30;99.90
40996;DHT22;26723;57.478;12.066;2023-03-24T03:36:44;6.20;99.90
40996;DHT22;26723;57.478;12.066;2023-03-24T03:39:56;6.20;99.90
40996;DHT22;26723;57.478;12.066;2023-03-24T03:43:06;6.10;99.90
40996;DHT22;26723;57.478;12.066;2023-03-24T03:46:17;6.20;99.90
40996;DHT22;26723;57.478;12.066;2023-03-24T03:49:28;6.10;99.90
40996;DHT22;26723;57.478;12.066;2023-03-24T03:52:38;6.20;99.90
40996;DHT22;26723;57.478;12.066;2023-03-24T03:55:48;6.20;99.90
40996;DHT22;26723;57.478;12.066;2023-03-24T03:58:56;6.20;99.90
40996;DHT22;26723;57.478;12.066;2023-03-24T04:02:15;6.20;99.90
40996;DHT22;26723;57.478;12.066;2023-03-24T04:05:29;6.30;99.90
40996;DHT22;26723;57.478;12.066;2023-03-24T04:08:48;6.30;99.90
40996;DHT22;26723;57.478;12.066;2023-03-24T04:12:26;6.30;99.90
40996;DHT22;26723;57.478;12.066;2023-03-24T04:16:05;6.30;99.90
40996;DHT22;26723;57.478;12.066;2023-03-24T04:19:41;6.30;99.90
40996;DHT22;26723;57.478;12.066;2023-03-24T04:23:02;6.40;99.90
40996;DHT22;26723;57.478;12.066;2023-03-24T04:26:20;6.40;99.90
40996;DHT22;26723;57.478;12.066;2023-03-24T04:29:39;6.40;99.90
40996;DHT22;26723;57.478;12.066;2023-03-24T04:32:56;6.50;99.90
40996;DHT22;26723;57.478;12.066;2023-03-24T04:36:11;6.50;99.90
40996;DHT22;26723;57.478;12.066;2023-03-24T04:39:45;6.50;99.90
40996;DHT22;26723;57.478;12.066;2023-03-24T04:42:57;6.60;99.90
40996;DHT22;26723;57.478;12.066;2023-03-24T04:46:09;6.60;99.90
40996;DHT22;26723;57.478;12.066;2023-03-24T04:49:37;6.60;99.90
40996;DHT22;26723;57.478;12.066;2023-03-24T04:52:47;6.60;99.90
40996;DHT22;26723;57.478;12.066;2023-03-24T04:56:03;6.60;99.90
40996;DHT22;26723;57.478;12.066;2023-03-24T04:59:31;6.60;99.90
40996;DHT22;26723;57.478;12.066;2023-03-24T05:02:42;6.70;99.90
40996;DHT22;26723;57.478;12.066;2023-03-24T05:05:57;6.80;99.90
40996;DHT22;26723;57.478;12.066;2023-03-24T05:09:07;6.80;99.90
40996;DHT22;26723;57.478;12.066;2023-03-24T05:12:16;6.80;99.90
40996;DHT22;26723;57.478;12.066;2023-03-24T05:15:44;6.80;99.90
40996;DHT22;26723;57.478;12.066;2023-03-24T05:19:07;6.80;99.90
40996;DHT22;26723;57.478;12.066;2023-03-24T05:22:16;6.90;99.90
40996;DHT22;26723;57.478;12.066;2023-03-24T05:25:26;6.90;99.90
40996;DHT22;26723;57.478;12.066;2023-03-24T05:28:35;6.90;99.90
40996;DHT22;26723;57.478;12.066;2023-03-24T05:31:43;6.90;99.90
40996;DHT22;26723;57.478;12.066;2023-03-24T05:34:55;7.00;99.90
40996;DHT22;26723;57.478;12.066;2023-03-24T05:38:10;7.00;99.90
40996;DHT22;26723;57.478;12.066;2023-03-24T05:41:23;7.00;99.90
40996;DHT22;26723;57.478;12.066;2023-03-24T05:44:32;7.00;99.90
40996;DHT22;26723;57.478;12.066;2023-03-24T05:47:45;7.00;99.90
40996;DHT22;26723;57.478;12.066;2023-03-24T05:50:57;7.00;99.90
40996;DHT22;26723;57.478;12.066;2023-03-24T05:54:06;7.10;99.90
40996;DHT22;26723;57.478;12.066;2023-03-24T05:57:27;7.10;99.90
40996;DHT22;26723;57.478;12.066;2023-03-24T06:00:55;7.10;99.90
40996;DHT22;26723;57.478;12.066;2023-03-24T06:04:13;7.10;99.90
40996;DHT22;26723;57.478;12.066;2023-03-24T06:07:21;7.10;99.90
40996;DHT22;26723;57.478;12.066;2023-03-24T06:10:34;7.10;99.90
40996;DHT22;26723;57.478;12.066;2023-03-24T06:13:45;7.10;99.90
40996;DHT22;26723;57.478;12.066;2023-03-24T06:16:54;7.10;99.90
40996;DHT22;26723;57.478;12.066;2023-03-24T06:20:06;7.10;99.90
40996;DHT22;26723;57.478;12.066;2023-03-24T06:23:32;7.20;99.90
40996;DHT22;26723;57.478;12.066;2023-03-24T06:26:54;7.20;99.90
40996;DHT22;26723;57.478;12.066;2023-03-24T06:30:14;7.20;99.90
40996;DHT22;26723;57.478;12.066;2023-03-24T06:33:23;7.30;99.90
40996;DHT22;26723;57.478;12.066;2023-03-24T06:36:33;7.30;99.90
40996;DHT22;26723;57.478;12.066;2023-03-24T06:39:42;7.30;99.90
40996;DHT22;26723;57.478;12.066;2023-03-24T06:42:53;7.40;99.90
40996;DHT22;26723;57.478;12.066;2023-03-24T06:46:03;7.50;99.90
40996;DHT22;26723;57.478;12.066;2023-03-24T06:49:12;7.60;99.90
40996;DHT22;26723;57.478;12.066;2023-03-24T06:52:21;7.70;99.90
40996;DHT22;26723;57.478;12.066;2023-03-24T06:55:30;7.70;99.90
40996;DHT22;26723;57.478;12.066;2023-03-24T06:58:39;7.80;99.90
40996;DHT22;26723;57.478;12.066;2023-03-24T07:01:55;7.90;99.90
40996;DHT22;26723;57.478;12.066;2023-03-24T07:05:06;7.90;99.90
40996;DHT22;26723;57.478;12.066;2023-03-24T07:08:20;8.00;99.90
40996;DHT22;26723;57.478;12.066;2023-03-24T07:11:44;8.00;99.90
40996;DHT22;26723;57.478;12.066;2023-03-24T07:14:54;8.10;99.90
40996;DHT22;26723;57.478;12.066;2023-03-24T07:18:04;8.10;99.90
40996;DHT22;26723;57.478;12.066;2023-03-24T07:21:29;8.20;99.90
40996;DHT22;26723;57.478;12.066;2023-03-24T07:24:39;8.20;99.90
40996;DHT22;26723;57.478;12.066;2023-03-24T07:28:07;8.20;99.90
40996;DHT22;26723;57.478;12.066;2023-03-24T07:31:17;8.30;99.90
40996;DHT22;26723;57.478;12.066;2023-03-24T07:34:31;8.30;99.90
40996;DHT22;26723;57.478;12.066;2023-03-24T07:37:40;8.30;99.90
40996;DHT22;26723;57.478;12.066;2023-03-24T07:40:49;8.30;99.90
40996;DHT22;26723;57.478;12.066;2023-03-24T07:43:59;8.30;99.90
40996;DHT22;26723;57.478;12.066;2023-03-24T07:47:13;8.30;99.90
40996;DHT22;26723;57.478;12.066;2023-03-24T07:50:23;8.40;99.90
40996;DHT22;26723;57.478;12.066;2023-03-24T07:53:31;8.40;99.90
40996;DHT22;26723;57.478;12.066;2023-03-24T07:56:40;8.40;99.90
40996;DHT22;26723;57.478;12.066;2023-03-24T07:59:51;8.40;99.90
40996;DHT22;26723;57.478;12.066;2023-03-24T08:03:28;8.40;99.90
40996;DHT22;26723;57.478;12.066;2023-03-24T08:06:57;8.40;99.90
40996;DHT22;26723;57.478;12.066;2023-03-24T08:10:07;8.40;99.90
40996;DHT22;26723;57.478;12.066;2023-03-24T08:13:15;8.40;99.90
40996;DHT22;26723;57.478;12.066;2023-03-24T08:16:24;8.40;99.90
40996;DHT22;26723;57.478;12.066;2023-03-24T08:19:32;8.40;99.90
40996;DHT22;26723;57.478;12.066;2023-03-24T08:22:50;8.30;99.90
40996;DHT22;26723;57.478;12.066;2023-03-24T08:26:00;8.30;99.90
40996;DHT22;26723;57.478;12.066;2023-03-24T08:29:09;8.40;99.90
40996;DHT22;26723;57.478;12.066;2023-03-24T08:32:17;8.40;99.90
40996;DHT22;26723;57.478;12.066;2023-03-24T08:35:27;8.40;99.90
40996;DHT22;26723;57.478;12.066;2023-03-24T08:38:37;8.40;99.90
40996;DHT22;26723;57.478;12.066;2023-03-24T08:41:46;8.40;99.90
40996;DHT22;26723;57.478;12.066;2023-03-24T08:44:56;8.50;99.90
40996;DHT22;26723;57.478;12.066;2023-03-24T08:48:06;8.50;99.90
40996;DHT22;26723;57.478;12.066;2023-03-24T08:51:16;8.60;99.90
40996;DHT22;26723;57.478;12.066;2023-03-24T08:54:25;8.60;99.90
40996;DHT22;26723;57.478;12.066;2023-03-24T08:57:34;8.70;99.90
40996;DHT22;26723;57.478;12.066;2023-03-24T09:00:43;8.60;99.90
40996;DHT22;26723;57.478;12.066;2023-03-24T09:03:52;8.60;99.90
40996;DHT22;26723;57.478;12.066;2023-03-24T09:07:01;8.60;99.90
40996;DHT22;26723;57.478;12.066;2023-03-24T09:10:12;8.60;99.90
40996;DHT22;26723;57.478;12.066;2023-03-24T09:13:21;8.50;99.90
40996;DHT22;26723;57.478;12.066;2023-03-24T09:16:29;8.50;99.90
40996;DHT22;26723;57.478;12.066;2023-03-24T09:19:37;8.40;99.90
40996;DHT22;26723;57.478;12.066;2023-03-24T09:22:46;8.40;99.90
40996;DHT22;26723;57.478;12.066;2023-03-24T09:25:56;8.30;99.90
40996;DHT22;26723;57.478;12.066;2023-03-24T09:29:06;8.30;99.90
40996;DHT22;26723;57.478;12.066;2023-03-24T09:32:14;8.30;99.90
40996;DHT22;26723;57.478;12.066;2023-03-24T09:35:23;8.30;99.90
40996;DHT22;26723;57.478;12.066;2023-03-24T09:38:31;8.30;99.90
40996;DHT22;26723;57.478;12.066;2023-03-24T09:41:43;8.20;99.90
40996;DHT22;26723;57.478;12.066;2023-03-24T09:44:55;8.20;99.90
40996;DHT22;26723;57.478;12.066;2023-03-24T09:48:07;8.20;99.90
40996;DHT22;26723;57.478;12.066;2023-03-24T09:51:22;8.10;99.90
40996;DHT22;26723;57.478;12.066;2023-03-24T09:54:45;8.10;99.90
40996;DHT22;26723;57.478;12.066;2023-03-24T09:58:00;8.10;99.90
40996;DHT22;26723;57.478;12.066;2023-03-24T10:01:12;8.00;99.90
40996;DHT22;26723;57.478;12.066;2023-03-24T10:04:24;8.00;99.90
40996;DHT22;26723;57.478;12.066;2023-03-24T10:07:37;7.90;99.90
40996;DHT22;26723;57.478;12.066;2023-03-24T10:10:54;7.80;99.90
40996;DHT22;26723;57.478;12.066;2023-03-24T10:14:18;7.70;99.90
40996;DHT22;26723;57.478;12.066;2023-03-24T10:17:37;7.70;99.90
40996;DHT22;26723;57.478;12.066;2023-03-24T10:20:51;7.70;99.90
40996;DHT22;26723;57.478;12.066;2023-03-24T10:24:07;7.70;99.90
40996;DHT22;26723;57.478;12.066;2023-03-24T10:27:25;7.60;99.90
40996;DHT22;26723;57.478;12.066;2023-03-24T10:30:39;7.60;99.90
40996;DHT22;26723;57.478;12.066;2023-03-24T10:33:51;7.50;99.90
40996;DHT22;26723;57.478;12.066;2023-03-24T10:37:01;7.40;99.90
40996;DHT22;26723;57.478;12.066;2023-03-24T10:40:14;7.50;99.90
40996;DHT22;26723;57.478;12.066;2023-03-24T10:43:25;7.60;99.90
40996;DHT22;26723;57.478;12.066;2023-03-24T10:46:45;7.80;99.90
40996;DHT22;26723;57.478;12.066;2023-03-24T10:49:56;8.10;99.90
40996;DHT22;26723;57.478;12.066;2023-03-24T10:53:08;8.30;99.90
40996;DHT22;26723;57.478;12.066;2023-03-24T10:56:20;8.50;99.90
40996;DHT22;26723;57.478;12.066;2023-03-24T10:59:52;8.60;99.90
40996;DHT22;26723;57.478;12.066;2023-03-24T11:03:04;8.90;99.90
40996;DHT22;26723;57.478;12.066;2023-03-24T11:06:17;9.10;99.90
40996;DHT22;26723;57.478;12.066;2023-03-24T11:09:26;9.40;99.90
40996;DHT22;26723;57.478;12.066;2023-03-24T11:12:36;9.60;99.90
40996;DHT22;26723;57.478;12.066;2023-03-24T11:16:03;9.80;99.90
40996;DHT22;26723;57.478;12.066;2023-03-24T11:19:19;10.20;99.90
40996;DHT22;26723;57.478;12.066;2023-03-24T11:22:29;10.70;99.90
40996;DHT22;26723;57.478;12.066;2023-03-24T11:25:40;10.60;99.90
40996;DHT22;26723;57.478;12.066;2023-03-24T11:28:51;10.60;99.90
40996;DHT22;26723;57.478;12.066;2023-03-24T11:32:01;10.70;99.90
40996;DHT22;26723;57.478;12.066;2023-03-24T11:35:16;10.40;99.90
40996;DHT22;26723;57.478;12.066;2023-03-24T11:38:28;10.30;99.90
40996;DHT22;26723;57.478;12.066;2023-03-24T11:41:40;10.20;99.90
40996;DHT22;26723;57.478;12.066;2023-03-24T11:44:50;9.90;99.90
40996;DHT22;26723;57.478;12.066;2023-03-24T11:48:00;9.80;99.90
40996;DHT22;26723;57.478;12.066;2023-03-24T11:51:16;9.60;99.90
40996;DHT22;26723;57.478;12.066;2023-03-24T11:54:32;9.50;99.90
40996;DHT22;26723;57.478;12.066;2023-03-24T11:57:48;9.40;99.90
40996;DHT22;26723;57.478;12.066;2023-03-24T12:01:03;9.40;99.90
40996;DHT22;26723;57.478;12.066;2023-03-24T12:04:24;9.40;99.90
40996;DHT22;26723;57.478;12.066;2023-03-24T12:11:27;9.40;99.90
40996;DHT22;26723;57.478;12.066;2023-03-24T12:14:49;9.40;99.90
40996;DHT22;26723;57.478;12.066;2023-03-24T12:21:43;9.60;99.90
40996;DHT22;26723;57.478;12.066;2023-03-24T12:32:40;10.00;99.90
40996;DHT22;26723;57.478;12.066;2023-03-24T12:36:05;9.80;99.90
40996;DHT22;26723;57.478;12.066;2023-03-24T12:39:25;9.60;99.90
40996;DHT22;26723;57.478;12.066;2023-03-24T12:42:38;9.30;99.90
40996;DHT22;26723;57.478;12.066;2023-03-24T12:45:50;9.10;99.90
40996;DHT22;26723;57.478;12.066;2023-03-24T12:49:10;9.00;99.90
40996;DHT22;26723;57.478;12.066;2023-03-24T12:52:36;9.00;99.90
40996;DHT22;26723;57.478;12.066;2023-03-24T12:55:57;9.10;99.90
40996;DHT22;26723;57.478;12.066;2023-03-24T12:59:11;9.00;99.90
40996;DHT22;26723;57.478;12.066;2023-03-24T13:02:28;9.00;99.90
40996;DHT22;26723;57.478;12.066;2023-03-24T13:05:42;8.90;99.90
40996;DHT22;26723;57.478;12.066;2023-03-24T13:09:03;8.70;99.90
40996;DHT22;26723;57.478;12.066;2023-03-24T13:12:16;8.70;99.90
40996;DHT22;26723;57.478;12.066;2023-03-24T13:15:30;8.80;99.90
40996;DHT22;26723;57.478;12.066;2023-03-24T13:18:42;8.70;99.90
40996;DHT22;26723;57.478;12.066;2023-03-24T13:21:53;8.60;99.90
40996;DHT22;26723;57.478;12.066;2023-03-24T13:25:07;8.70;99.90
40996;DHT22;26723;57.478;12.066;2023-03-24T13:28:21;8.80;99.90
40996;DHT22;26723;57.478;12.066;2023-03-24T13:31:34;8.80;99.90
40996;DHT22;26723;57.478;12.066;2023-03-24T13:34:48;8.80;99.90
40996;DHT22;26723;57.478;12.066;2023-03-24T13:38:07;8.80;99.90
40996;DHT22;26723;57.478;12.066;2023-03-24T13:41:21;8.70;99.90
40996;DHT22;26723;57.478;12.066;2023-03-24T13:44:37;8.70;99.90
40996;DHT22;26723;57.478;12.066;2023-03-24T13:47:47;8.80;99.90
40996;DHT22;26723;57.478;12.066;2023-03-24T13:51:00;8.90;99.90
40996;DHT22;26723;57.478;12.066;2023-03-24T13:54:14;8.80;99.90
40996;DHT22;26723;57.478;12.066;2023-03-24T13:57:24;8.80;99.90
40996;DHT22;26723;57.478;12.066;2023-03-24T14:00:32;8.90;99.90
40996;DHT22;26723;57.478;12.066;2023-03-24T14:03:42;8.90;99.90
40996;DHT22;26723;57.478;12.066;2023-03-24T14:06:54;9.00;99.90
40996;DHT22;26723;57.478;12.066;2023-03-24T14:10:27;9.00;99.90
40996;DHT22;26723;57.478;12.066;2023-03-24T14:13:45;8.90;99.90
40996;DHT22;26723;57.478;12.066;2023-03-24T14:17:10;8.80;99.90
40996;DHT22;26723;57.478;12.066;2023-03-24T14:20:31;8.80;99.90
40996;DHT22;26723;57.478;12.066;2023-03-24T14:23:43;8.70;99.90
40996;DHT22;26723;57.478;12.066;2023-03-24T14:26:52;8.70;99.90
40996;DHT22;26723;57.478;12.066;2023-03-24T14:30:03;8.70;99.90
40996;DHT22;26723;57.478;12.066;2023-03-24T14:33:23;8.70;99.90
40996;DHT22;26723;57.478;12.066;2023-03-24T14:36:32;8.70;99.90
40996;DHT22;26723;57.478;12.066;2023-03-24T14:39:47;8.60;99.90
40996;DHT22;26723;57.478;12.066;2023-03-24T14:43:04;8.60;99.90
40996;DHT22;26723;57.478;12.066;2023-03-24T14:46:39;8.60;99.90
40996;DHT22;26723;57.478;12.066;2023-03-24T14:49:50;8.60;99.90
40996;DHT22;26723;57.478;12.066;2023-03-24T14:53:01;8.60;99.90
40996;DHT22;26723;57.478;12.066;2023-03-24T14:56:13;8.70;99.90
40996;DHT22;26723;57.478;12.066;2023-03-24T14:59:30;8.70;99.90
40996;DHT22;26723;57.478;12.066;2023-03-24T15:02:43;8.80;99.90
40996;DHT22;26723;57.478;12.066;2023-03-24T15:06:07;8.80;99.90
40996;DHT22;26723;57.478;12.066;2023-03-24T15:09:18;8.90;99.90
40996;DHT22;26723;57.478;12.066;2023-03-24T15:12:28;8.90;99.90
40996;DHT22;26723;57.478;12.066;2023-03-24T15:15:36;8.90;99.90
40996;DHT22;26723;57.478;12.066;2023-03-24T15:18:55;9.00;99.90
40996;DHT22;26723;57.478;12.066;2023-03-24T15:22:11;9.10;99.90
40996;DHT22;26723;57.478;12.066;2023-03-24T15:25:24;8.90;99.90
40996;DHT22;26723;57.478;12.066;2023-03-24T15:28:35;8.90;99.90
40996;DHT22;26723;57.478;12.066;2023-03-24T15:31:44;9.00;99.90
40996;DHT22;26723;57.478;12.066;2023-03-24T15:34:54;8.90;99.90
40996;DHT22;26723;57.478;12.066;2023-03-24T15:38:04;8.90;99.90
40996;DHT22;26723;57.478;12.066;2023-03-24T15:41:15;8.90;99.90
40996;DHT22;26723;57.478;12.066;2023-03-24T15:44:27;8.80;99.90
40996;DHT22;26723;57.478;12.066;2023-03-24T15:47:38;8.80;99.90
40996;DHT22;26723;57.478;12.066;2023-03-24T15:50:56;8.80;99.90
40996;DHT22;26723;57.478;12.066;2023-03-24T15:54:21;8.80;99.90
40996;DHT22;26723;57.478;12.066;2023-03-24T15:57:37;8.80;99.90
40996;DHT22;26723;57.478;12.066;2023-03-24T16:00:48;8.70;99.90
40996;DHT22;26723;57.478;12.066;2023-03-24T16:04:00;8.70;99.90
40996;DHT22;26723;57.478;12.066;2023-03-24T16:07:20;8.60;99.90
40996;DHT22;26723;57.478;12.066;2023-03-24T16:10:37;8.60;99.90
40996;DHT22;26723;57.478;12.066;2023-03-24T16:13:48;8.50;99.90
40996;DHT22;26723;57.478;12.066;2023-03-24T16:17:00;8.50;99.90
40996;DHT22;26723;57.478;12.066;2023-03-24T16:20:18;8.40;99.90
40996;DHT22;26723;57.478;12.066;2023-03-24T16:23:26;8.40;99.90
40996;DHT22;26723;57.478;12.066;2023-03-24T16:26:35;8.30;99.90
40996;DHT22;26723;57.478;12.066;2023-03-24T16:29:43;8.30;99.90
40996;DHT22;26723;57.478;12.066;2023-03-24T16:32:53;8.30;99.90
40996;DHT22;26723;57.478;12.066;2023-03-24T16:36:01;8.30;99.90
40996;DHT22;26723;57.478;12.066;2023-03-24T16:39:13;8.30;99.90
40996;DHT22;26723;57.478;12.066;2023-03-24T16:42:22;8.30;99.90
40996;DHT22;26723;57.478;12.066;2023-03-24T16:45:31;8.30;99.90
40996;DHT22;26723;57.478;12.066;2023-03-24T16:48:43;8.20;99.90
40996;DHT22;26723;57.478;12.066;2023-03-24T16:51:51;8.20;99.90
40996;DHT22;26723;57.478;12.066;2023-03-24T16:54:59;8.20;99.90
40996;DHT22;26723;57.478;12.066;2023-03-24T16:58:11;8.30;99.90
40996;DHT22;26723;57.478;12.066;2023-03-24T17:01:27;8.20;99.90
40996;DHT22;26723;57.478;12.066;2023-03-24T17:04:37;8.20;99.90
40996;DHT22;26723;57.478;12.066;2023-03-24T17:07:47;8.20;99.90
40996;DHT22;26723;57.478;12.066;2023-03-24T17:10:55;8.20;99.90
40996;DHT22;26723;57.478;12.066;2023-03-24T17:14:05;8.20;99.90
40996;DHT22;26723;57.478;12.066;2023-03-24T17:17:16;8.10;99.90
40996;DHT22;26723;57.478;12.066;2023-03-24T17:20:26;8.10;99.90
40996;DHT22;26723;57.478;12.066;2023-03-24T17:23:35;8.10;99.90
40996;DHT22;26723;57.478;12.066;2023-03-24T17:26:44;8.00;99.90
40996;DHT22;26723;57.478;12.066;2023-03-24T17:29:52;8.00;99.90
40996;DHT22;26723;57.478;12.066;2023-03-24T17:33:00;8.00;99.90
40996;DHT22;26723;57.478;12.066;2023-03-24T17:36:13;8.00;99.90
40996;DHT22;26723;57.478;12.066;2023-03-24T17:39:22;8.00;99.90
40996;DHT22;26723;57.478;12.066;2023-03-24T17:42:31;8.00;99.90
40996;DHT22;26723;57.478;12.066;2023-03-24T17:45:39;8.00;99.90
40996;DHT22;26723;57.478;12.066;2023-03-24T17:48:48;8.00;99.90
40996;DHT22;26723;57.478;12.066;2023-03-24T17:51:58;8.00;99.90
40996;DHT22;26723;57.478;12.066;2023-03-24T17:55:07;7.90;99.90
40996;DHT22;26723;57.478;12.066;2023-03-24T17:58:15;7.90;99.90
40996;DHT22;26723;57.478;12.066;2023-03-24T18:01:24;7.90;99.90
40996;DHT22;26723;57.478;12.066;2023-03-24T18:04:35;7.90;99.90
40996;DHT22;26723;57.478;12.066;2023-03-24T18:07:45;7.80;99.90
40996;DHT22;26723;57.478;12.066;2023-03-24T18:11:02;7.80;99.90
40996;DHT22;26723;57.478;12.066;2023-03-24T18:14:11;7.80;99.90
40996;DHT22;26723;57.478;12.066;2023-03-24T18:17:19;7.80;99.90
40996;DHT22;26723;57.478;12.066;2023-03-24T18:20:28;7.80;99.90
40996;DHT22;26723;57.478;12.066;2023-03-24T18:23:39;7.80;99.90
40996;DHT22;26723;57.478;12.066;2023-03-24T18:26:47;7.80;99.90
40996;DHT22;26723;57.478;12.066;2023-03-24T18:29:56;7.80;99.90
40996;DHT22;26723;57.478;12.066;2023-03-24T18:33:05;7.80;99.90
40996;DHT22;26723;57.478;12.066;2023-03-24T18:36:14;7.80;99.90
40996;DHT22;26723;57.478;12.066;2023-03-24T18:39:28;7.80;99.90
40996;DHT22;26723;57.478;12.066;2023-03-24T18:42:37;7.80;99.90
40996;DHT22;26723;57.478;12.066;2023-03-24T18:45:45;7.80;99.90
40996;DHT22;26723;57.478;12.066;2023-03-24T18:48:54;7.80;99.90
40996;DHT22;26723;57.478;12.066;2023-03-24T18:52:03;7.80;99.90
40996;DHT22;26723;57.478;12.066;2023-03-24T18:55:17;7.80;99.90
40996;DHT22;26723;57.478;12.066;2023-03-24T18:58:28;7.80;99.90
40996;DHT22;26723;57.478;12.066;2023-03-24T19:01:37;7.80;99.90
40996;DHT22;26723;57.478;12.066;2023-03-24T19:04:45;7.70;99.90
40996;DHT22;26723;57.478;12.066;2023-03-24T19:07:54;7.80;99.90
40996;DHT22;26723;57.478;12.066;2023-03-24T19:11:04;7.70;99.90
40996;DHT22;26723;57.478;12.066;2023-03-24T19:14:12;7.70;99.90
40996;DHT22;26723;57.478;12.066;2023-03-24T19:17:20;7.70;99.90
40996;DHT22;26723;57.478;12.066;2023-03-24T19:20:30;7.70;99.90
40996;DHT22;26723;57.478;12.066;2023-03-24T19:23:40;7.70;99.90
40996;DHT22;26723;57.478;12.066;2023-03-24T19:26:50;7.70;99.90
40996;DHT22;26723;57.478;12.066;2023-03-24T19:29:59;7.70;99.90
40996;DHT22;26723;57.478;12.066;2023-03-24T19:33:11;7.70;99.90
40996;DHT22;26723;57.478;12.066;2023-03-24T19:36:19;7.70;99.90
40996;DHT22;26723;57.478;12.066;2023-03-24T19:39:28;7.60;99.90
40996;DHT22;26723;57.478;12.066;2023-03-24T19:42:38;7.70;99.90
40996;DHT22;26723;57.478;12.066;2023-03-24T19:45:48;7.60;99.90
40996;DHT22;26723;57.478;12.066;2023-03-24T19:48:57;7.70;99.90
40996;DHT22;26723;57.478;12.066;2023-03-24T19:52:05;7.70;99.90
40996;DHT22;26723;57.478;12.066;2023-03-24T19:55:14;7.70;99.90
40996;DHT22;26723;57.478;12.066;2023-03-24T19:58:24;7.70;99.90
40996;DHT22;26723;57.478;12.066;2023-03-24T20:01:32;7.70;99.90
40996;DHT22;26723;57.478;12.066;2023-03-24T20:04:43;7.70;99.90
40996;DHT22;26723;57.478;12.066;2023-03-24T20:07:51;7.60;99.90
40996;DHT22;26723;57.478;12.066;2023-03-24T20:11:04;7.60;99.90
40996;DHT22;26723;57.478;12.066;2023-03-24T20:14:14;7.60;99.90
40996;DHT22;26723;57.478;12.066;2023-03-24T20:17:24;7.60;99.90
40996;DHT22;26723;57.478;12.066;2023-03-24T20:20:34;7.60;99.90
40996;DHT22;26723;57.478;12.066;2023-03-24T20:23:42;7.60;99.90
40996;DHT22;26723;57.478;12.066;2023-03-24T20:26:51;7.60;99.90
40996;DHT22;26723;57.478;12.066;2023-03-24T20:30:01;7.60;99.90
40996;DHT22;26723;57.478;12.066;2023-03-24T20:33:09;7.60;99.90
40996;DHT22;26723;57.478;12.066;2023-03-24T20:36:17;7.60;99.90
40996;DHT22;26723;57.478;12.066;2023-03-24T20:39:26;7.60;99.90
40996;DHT22;26723;57.478;12.066;2023-03-24T20:42:34;7.60;99.90